Time;durP1;ratioP1;P1;durP2;ratioP2;P2;SDS_P1;SDS_P2;PMS_P1;PMS_P2;Temp;Humidity;BMP_temperature;BMP_pressure;BME280_temperature;BME280_humidity;BME280_pressure;Samples;Min_cycle;Max_cycle;Signal;HPM_P1;HPM_P2
2023/06/08 00:01:54;;;;;;;33.97;24.13;;;16.60;99.90;;;;;;5106469;28;20114;-63
2023/06/08 00:04:22;;;;;;;35.88;25.33;;;16.60;99.90;;;;;;5109048;28;20024;-63
2023/06/08 00:06:49;;;;;;;39.45;24.63;;;16.50;99.90;;;;;;5107909;28;20020;-63
2023/06/08 00:09:16;;;;;;;39.40;26.45;;;16.50;99.90;;;;;;5111188;28;20023;-63
2023/06/08 00:11:42;;;;;;;36.58;26.10;;;16.50;99.90;;;;;;5106803;28;20023;-63
2023/06/08 00:14:08;;;;;;;38.00;26.42;;;16.40;99.90;;;;;;5105093;28;20378;-63
2023/06/08 00:16:38;;;;;;;42.80;25.08;;;16.40;99.90;;;;;;5108813;28;20031;-63
2023/06/08 00:19:03;;;;;;;38.22;25.00;;;16.40;99.90;;;;;;5103391;28;20031;-63
2023/06/08 00:21:33;;;;;;;38.85;26.73;;;16.30;99.90;;;;;;5109978;27;20016;-63
2023/06/08 00:23:59;;;;;;;40.45;25.23;;;16.30;99.90;;;;;;5107390;28;20015;-63
2023/06/08 00:26:26;;;;;;;34.67;23.92;;;16.30;99.90;;;;;;5102300;28;20034;-63
2023/06/08 00:28:51;;;;;;;39.60;25.38;;;16.20;99.90;;;;;;5107112;28;20020;-64
2023/06/08 00:31:18;;;;;;;34.90;24.33;;;16.20;99.90;;;;;;5108910;28;20038;-63
2023/06/08 00:33:43;;;;;;;36.65;24.45;;;16.20;99.90;;;;;;5107691;28;20055;-63
2023/06/08 00:36:09;;;;;;;36.28;23.65;;;16.10;99.90;;;;;;5102453;28;20055;-63
2023/06/08 00:38:35;;;;;;;37.25;26.52;;;16.10;99.90;;;;;;5107813;28;20469;-63
2023/06/08 00:41:01;;;;;;;38.65;26.13;;;16.00;99.90;;;;;;5102061;28;20130;-63
2023/06/08 00:43:27;;;;;;;41.20;25.83;;;15.90;99.90;;;;;;5106081;28;20074;-63
2023/06/08 00:45:55;;;;;;;37.80;26.92;;;15.90;99.90;;;;;;5105953;28;20056;-63
2023/06/08 00:48:22;;;;;;;44.80;27.63;;;15.90;99.90;;;;;;5102433;28;20030;-63
2023/06/08 00:50:50;;;;;;;47.17;28.10;;;15.90;99.90;;;;;;5105778;28;20067;-62
2023/06/08 00:53:16;;;;;;;45.70;26.48;;;15.90;99.90;;;;;;5109573;28;20056;-64
2023/06/08 00:55:43;;;;;;;40.03;26.65;;;15.90;99.90;;;;;;5106144;28;20492;-64
2023/06/08 00:58:13;;;;;;;34.97;25.48;;;15.90;99.90;;;;;;5105932;28;20081;-63
2023/06/08 01:00:46;;;;;;;42.58;24.80;;;15.90;99.90;;;;;;5101161;28;20019;-63
2023/06/08 01:03:19;;;;;;;32.30;23.75;;;15.90;99.90;;;;;;5106668;28;20035;-64
2023/06/08 01:05:45;;;;;;;33.42;23.67;;;15.90;99.90;;;;;;5106993;28;21455;-64
2023/06/08 01:08:19;;;;;;;33.47;23.23;;;15.90;99.90;;;;;;5105099;28;20533;-64
2023/06/08 01:11:02;;;;;;;32.58;22.48;;;15.90;99.90;;;;;;5106875;28;20023;-64
2023/06/08 01:13:42;;;;;;;33.53;23.45;;;15.90;99.90;;;;;;5103327;28;20016;-63
2023/06/08 01:16:13;;;;;;;34.15;23.67;;;15.80;99.90;;;;;;5103389;28;20098;-63
2023/06/08 01:18:40;;;;;;;36.97;25.15;;;15.70;99.90;;;;;;5104212;28;20023;-64
2023/06/08 01:21:42;;;;;;;35.03;25.52;;;15.70;99.90;;;;;;5108374;28;20401;-64
2023/06/08 01:24:12;;;;;;;34.30;24.42;;;15.70;99.90;;;;;;5102328;28;20092;-62
2023/06/08 01:26:40;;;;;;;38.47;26.00;;;15.60;99.90;;;;;;5108940;28;20520;-63
2023/06/08 01:29:08;;;;;;;37.72;26.55;;;15.60;99.90;;;;;;5105811;28;20469;-64
2023/06/08 01:31:34;;;;;;;39.70;25.05;;;15.60;99.90;;;;;;5109194;28;20020;-64
2023/06/08 01:34:00;;;;;;;36.40;24.60;;;15.60;99.90;;;;;;5103083;28;20056;-62
2023/06/08 01:36:39;;;;;;;40.17;25.45;;;15.50;99.90;;;;;;5106687;28;20027;-64
2023/06/08 01:39:34;;;;;;;41.13;25.30;;;15.40;99.90;;;;;;5104352;28;20055;-63
2023/06/08 01:42:05;;;;;;;34.15;24.60;;;15.40;99.90;;;;;;5084722;28;20044;-62
2023/06/08 01:44:35;;;;;;;36.13;24.35;;;15.40;99.90;;;;;;5105359;28;20508;-62
2023/06/08 01:47:02;;;;;;;42.30;25.63;;;15.30;99.90;;;;;;5102697;28;20031;-63
2023/06/08 01:49:30;;;;;;;41.85;26.05;;;15.30;99.90;;;;;;5105167;28;20385;-63
2023/06/08 01:51:56;;;;;;;33.60;23.80;;;15.30;99.90;;;;;;5103202;28;20028;-63
2023/06/08 01:54:22;;;;;;;37.72;24.55;;;15.30;99.90;;;;;;5107065;28;20023;-63
2023/06/08 01:56:48;;;;;;;34.78;24.90;;;15.30;99.90;;;;;;5107323;28;20028;-64
2023/06/08 01:59:14;;;;;;;34.15;24.17;;;15.40;99.90;;;;;;5103892;28;20746;-63
2023/06/08 02:01:39;;;;;;;37.08;24.20;;;15.30;99.90;;;;;;5107315;28;20031;-63
2023/06/08 02:04:05;;;;;;;33.78;23.25;;;15.20;99.90;;;;;;5109779;28;20027;-64
2023/06/08 02:06:31;;;;;;;35.17;23.38;;;15.20;99.90;;;;;;5111146;28;20028;-63
2023/06/08 02:08:56;;;;;;;32.88;23.98;;;15.20;99.90;;;;;;5111560;28;20385;-63
2023/06/08 02:11:22;;;;;;;36.78;24.23;;;15.20;99.90;;;;;;5111821;28;20016;-63
2023/06/08 02:13:48;;;;;;;35.80;24.10;;;15.10;99.90;;;;;;5109704;28;20042;-62
2023/06/08 02:16:14;;;;;;;40.35;24.83;;;15.10;99.90;;;;;;5108091;28;20054;-63
2023/06/08 02:18:41;;;;;;;32.47;21.42;;;15.00;99.90;;;;;;5110306;28;20478;-62
2023/06/08 02:21:10;;;;;;;39.67;25.23;;;15.10;99.90;;;;;;5111814;27;20123;-63
2023/06/08 02:23:36;;;;;;;38.10;24.25;;;15.10;99.90;;;;;;5111208;28;20039;-63
2023/06/08 02:26:02;;;;;;;36.30;25.00;;;15.00;99.90;;;;;;5109627;28;20027;-62
2023/06/08 02:28:28;;;;;;;38.97;25.90;;;14.90;99.90;;;;;;5110658;28;20485;-64
2023/06/08 02:30:53;;;;;;;39.88;23.83;;;14.90;99.90;;;;;;5109737;28;20035;-63
2023/06/08 02:33:20;;;;;;;35.42;23.92;;;14.80;99.90;;;;;;5107422;28;20484;-63
2023/06/08 02:35:46;;;;;;;37.22;25.30;;;14.90;99.90;;;;;;5108031;28;20119;-64
2023/06/08 02:38:12;;;;;;;38.85;25.48;;;14.80;99.90;;;;;;5112153;27;20106;-64
2023/06/08 02:40:37;;;;;;;36.15;25.58;;;14.80;99.90;;;;;;5110560;28;20035;-64
2023/06/08 02:43:03;;;;;;;36.15;24.88;;;14.80;99.90;;;;;;5108732;28;20039;-63
2023/06/08 02:45:29;;;;;;;36.70;23.85;;;14.80;99.90;;;;;;5104912;28;20028;-64
2023/06/08 02:47:57;;;;;;;37.10;22.20;;;14.80;99.90;;;;;;5109348;28;20054;-63
2023/06/08 02:50:23;;;;;;;36.45;24.65;;;14.80;99.90;;;;;;5107668;28;20634;-63
2023/06/08 02:52:49;;;;;;;37.22;22.25;;;14.80;99.90;;;;;;5107893;28;20016;-64
2023/06/08 02:55:15;;;;;;;33.72;22.13;;;14.90;99.90;;;;;;5104734;27;20085;-64
2023/06/08 02:57:43;;;;;;;36.88;22.10;;;14.90;99.90;;;;;;5101639;28;20039;-62
2023/06/08 03:00:12;;;;;;;37.35;20.95;;;14.70;99.90;;;;;;5103443;28;20030;-63
2023/06/08 03:02:38;;;;;;;32.33;21.90;;;14.70;99.90;;;;;;5104305;28;20032;-62
2023/06/08 03:05:04;;;;;;;43.67;24.48;;;14.70;99.90;;;;;;5108986;28;20036;-64
2023/06/08 03:07:30;;;;;;;34.53;22.30;;;14.70;99.90;;;;;;5106584;28;20020;-63
2023/06/08 03:09:55;;;;;;;37.53;22.38;;;14.70;99.90;;;;;;5110545;28;20052;-64
2023/06/08 03:12:21;;;;;;;33.33;22.35;;;14.60;99.90;;;;;;5110454;28;20110;-63
2023/06/08 03:14:48;;;;;;;33.95;22.17;;;14.60;99.90;;;;;;5108068;28;20035;-62
2023/06/08 03:17:17;;;;;;;38.00;22.38;;;14.50;99.90;;;;;;5109279;28;20024;-62
2023/06/08 03:19:43;;;;;;;34.17;23.00;;;14.60;99.90;;;;;;5109974;28;20027;-63
2023/06/08 03:22:09;;;;;;;34.90;22.95;;;14.60;99.90;;;;;;5110391;28;20028;-62
2023/06/08 03:24:34;;;;;;;33.10;22.35;;;14.60;99.90;;;;;;5109478;28;20027;-62
2023/06/08 03:27:03;;;;;;;35.45;22.00;;;14.60;99.90;;;;;;5110368;28;20393;-62
2023/06/08 03:29:30;;;;;;;30.73;20.60;;;14.60;99.90;;;;;;5109257;28;20034;-63
2023/06/08 03:31:56;;;;;;;33.33;21.67;;;14.60;99.90;;;;;;5109592;28;20096;-63
2023/06/08 03:34:26;;;;;;;30.40;20.30;;;14.50;99.90;;;;;;5108206;28;20106;-63
2023/06/08 03:36:55;;;;;;;32.25;21.08;;;14.50;99.90;;;;;;5110800;28;20076;-64
2023/06/08 03:39:21;;;;;;;35.20;23.48;;;14.50;99.90;;;;;;5108445;28;20066;-63
2023/06/08 03:41:47;;;;;;;37.63;24.60;;;14.40;99.90;;;;;;5107830;28;20057;-64
2023/06/08 03:44:12;;;;;;;40.00;25.23;;;14.40;99.90;;;;;;5106719;28;20027;-63
2023/06/08 03:46:38;;;;;;;34.25;24.20;;;14.40;99.90;;;;;;5111903;27;20028;-64
2023/06/08 03:49:03;;;;;;;39.40;25.00;;;14.40;99.90;;;;;;5108353;28;20508;-63
2023/06/08 03:51:30;;;;;;;45.45;26.48;;;14.40;99.90;;;;;;5110908;28;20015;-63
2023/06/08 03:53:56;;;;;;;44.05;24.92;;;14.40;99.90;;;;;;5108933;28;20030;-63
2023/06/08 03:56:21;;;;;;;35.45;23.45;;;14.50;99.90;;;;;;5108250;28;20389;-61
2023/06/08 03:58:48;;;;;;;35.67;25.52;;;14.50;99.90;;;;;;5104378;28;20021;-62
2023/06/08 04:01:14;;;;;;;35.90;23.23;;;14.50;99.90;;;;;;5109258;28;20439;-63
2023/06/08 04:03:41;;;;;;;38.42;24.55;;;14.50;99.90;;;;;;5105275;28;20047;-64
2023/06/08 04:06:08;;;;;;;38.38;25.67;;;14.50;99.90;;;;;;5105498;28;20030;-64
2023/06/08 04:08:44;;;;;;;41.72;24.77;;;14.60;99.90;;;;;;5108391;28;20352;-63
2023/06/08 04:11:10;;;;;;;44.88;25.70;;;14.60;99.90;;;;;;5108736;28;20489;-63
2023/06/08 04:13:38;;;;;;;42.08;26.20;;;14.60;99.90;;;;;;5108799;28;20111;-63
2023/06/08 04:16:08;;;;;;;41.55;25.45;;;14.70;99.90;;;;;;5104414;28;20033;-62
2023/06/08 04:18:37;;;;;;;40.50;24.58;;;14.60;99.90;;;;;;5108125;28;20047;-63
2023/06/08 04:21:05;;;;;;;39.53;24.83;;;14.70;99.90;;;;;;5106042;28;20035;-63
2023/06/08 04:23:31;;;;;;;41.67;25.98;;;14.70;99.90;;;;;;5109719;28;20028;-62
2023/06/08 04:25:57;;;;;;;38.80;25.13;;;14.80;99.90;;;;;;5108660;28;20405;-63
2023/06/08 04:28:22;;;;;;;42.72;27.20;;;14.80;99.90;;;;;;5104296;28;20027;-63
2023/06/08 04:30:48;;;;;;;37.17;25.27;;;14.90;99.90;;;;;;5106527;28;20024;-62
2023/06/08 04:33:15;;;;;;;37.05;25.00;;;14.90;99.90;;;;;;5102603;28;20499;-64
2023/06/08 04:35:41;;;;;;;36.47;23.55;;;15.00;99.90;;;;;;5103620;28;20490;-64
2023/06/08 04:38:16;;;;;;;35.72;24.98;;;15.10;99.90;;;;;;5104314;28;20355;-63
2023/06/08 04:40:52;;;;;;;37.67;24.42;;;15.10;99.90;;;;;;5107191;28;20024;-63
2023/06/08 04:43:18;;;;;;;40.13;24.38;;;15.10;99.90;;;;;;5103947;28;20489;-62
2023/06/08 04:45:44;;;;;;;33.30;23.15;;;15.10;99.90;;;;;;5108122;28;20047;-64
2023/06/08 04:48:10;;;;;;;39.47;22.60;;;15.10;99.90;;;;;;5105534;28;20465;-64
2023/06/08 04:50:37;;;;;;;41.13;24.38;;;15.20;99.90;;;;;;5106164;28;20024;-64
2023/06/08 04:53:04;;;;;;;45.72;26.23;;;15.30;99.90;;;;;;5104272;28;20020;-64
2023/06/08 04:55:29;;;;;;;40.08;25.73;;;15.40;99.90;;;;;;5104732;28;20020;-64
2023/06/08 04:57:55;;;;;;;38.95;23.98;;;15.50;99.90;;;;;;5101294;28;20036;-65
2023/06/08 05:00:20;;;;;;;37.28;22.73;;;15.60;99.90;;;;;;5106386;28;20028;-63
2023/06/08 05:02:46;;;;;;;32.42;20.73;;;15.70;99.90;;;;;;5104544;28;20028;-64
2023/06/08 05:05:12;;;;;;;37.35;24.73;;;15.70;99.90;;;;;;5107300;28;20024;-64
2023/06/08 05:07:38;;;;;;;37.60;22.95;;;15.80;99.90;;;;;;5105459;28;20431;-63
2023/06/08 05:10:04;;;;;;;38.45;21.95;;;15.90;99.90;;;;;;5104510;28;20447;-63
2023/06/08 05:12:30;;;;;;;33.80;21.83;;;16.00;99.90;;;;;;5103822;28;20417;-64
2023/06/08 05:14:56;;;;;;;29.95;20.23;;;16.10;99.90;;;;;;5105689;28;20032;-63
2023/06/08 05:17:22;;;;;;;30.38;19.52;;;16.20;99.90;;;;;;5102209;28;20038;-63
2023/06/08 05:19:50;;;;;;;24.75;16.63;;;16.30;99.90;;;;;;5104431;28;20094;-63
2023/06/08 05:22:15;;;;;;;35.17;19.77;;;16.30;99.90;;;;;;5106606;28;20115;-63
2023/06/08 05:24:41;;;;;;;26.13;18.65;;;16.30;99.90;;;;;;5106943;28;20123;-64
2023/06/08 05:27:06;;;;;;;32.28;19.40;;;16.40;99.90;;;;;;5103599;28;20037;-63
2023/06/08 05:29:32;;;;;;;26.65;18.20;;;16.40;99.90;;;;;;5108985;28;20111;-63
2023/06/08 05:31:58;;;;;;;27.13;18.92;;;16.40;99.90;;;;;;5111083;28;20027;-64
2023/06/08 05:34:23;;;;;;;30.45;17.83;;;16.50;99.90;;;;;;5110369;28;20103;-64
2023/06/08 05:36:49;;;;;;;28.88;17.30;;;16.50;99.90;;;;;;5109288;28;20103;-64
2023/06/08 05:39:14;;;;;;;27.30;17.40;;;16.50;99.90;;;;;;5106982;28;20031;-62
2023/06/08 05:41:40;;;;;;;29.77;18.05;;;16.60;99.90;;;;;;5108313;28;20027;-63
2023/06/08 05:44:05;;;;;;;27.70;17.55;;;16.60;99.90;;;;;;5107099;28;20030;-63
2023/06/08 05:46:31;;;;;;;27.42;16.30;;;16.80;99.90;;;;;;5106732;28;20043;-63
2023/06/08 05:48:57;;;;;;;25.00;16.02;;;17.00;99.90;;;;;;5107676;27;20020;-63
2023/06/08 05:51:22;;;;;;;21.08;14.73;;;17.10;99.90;;;;;;5109162;28;20520;-64
2023/06/08 05:53:48;;;;;;;29.48;15.30;;;17.20;99.90;;;;;;5106191;28;20076;-63
2023/06/08 05:56:14;;;;;;;24.52;14.85;;;17.30;99.90;;;;;;5108291;27;20039;-63
2023/06/08 05:58:39;;;;;;;24.48;13.90;;;17.40;99.90;;;;;;5108442;28;20094;-63
2023/06/08 06:01:06;;;;;;;22.00;13.40;;;17.40;99.90;;;;;;5108515;28;20043;-64
2023/06/08 06:03:32;;;;;;;20.65;13.18;;;17.50;99.90;;;;;;5109841;28;20485;-64
2023/06/08 06:05:58;;;;;;;20.77;13.55;;;17.50;99.90;;;;;;5106001;28;20043;-63
2023/06/08 06:08:24;;;;;;;25.23;14.60;;;17.60;99.90;;;;;;5109106;28;20073;-64
2023/06/08 06:10:49;;;;;;;29.83;14.57;;;17.60;99.90;;;;;;5109436;28;20055;-63
2023/06/08 06:13:15;;;;;;;20.25;13.25;;;17.70;99.90;;;;;;5107575;28;20543;-63
2023/06/08 06:15:41;;;;;;;20.10;13.88;;;17.80;99.90;;;;;;5105077;28;20028;-64
2023/06/08 06:18:06;;;;;;;21.70;13.27;;;17.90;99.90;;;;;;5103092;28;20059;-63
2023/06/08 06:20:32;;;;;;;26.63;13.63;;;18.00;99.90;;;;;;5106026;28;20104;-64
2023/06/08 06:22:57;;;;;;;20.10;12.52;;;18.10;99.90;;;;;;5108760;28;20028;-64
2023/06/08 06:25:24;;;;;;;17.48;11.82;;;18.10;99.90;;;;;;5104276;28;20115;-64
2023/06/08 06:27:49;;;;;;;16.13;11.30;;;18.10;99.90;;;;;;5106023;28;20019;-64
2023/06/08 06:30:15;;;;;;;17.90;9.90;;;18.20;99.90;;;;;;5105358;28;20034;-63
2023/06/08 06:32:41;;;;;;;17.35;9.73;;;18.20;99.90;;;;;;5104690;28;20028;-64
2023/06/08 06:35:07;;;;;;;18.40;11.10;;;18.30;99.90;;;;;;5109003;28;20072;-64
2023/06/08 06:37:34;;;;;;;14.57;10.05;;;18.30;99.90;;;;;;5106805;28;20089;-63
2023/06/08 06:40:04;;;;;;;13.75;9.38;;;18.40;99.90;;;;;;5108008;28;20607;-62
2023/06/08 06:42:30;;;;;;;11.30;7.82;;;18.50;99.90;;;;;;5110316;28;20481;-63
2023/06/08 06:44:56;;;;;;;13.52;8.65;;;18.60;99.90;;;;;;5106269;28;20074;-63
2023/06/08 06:47:22;;;;;;;12.43;7.45;;;18.60;99.90;;;;;;5106787;27;20441;-63
2023/06/08 06:49:47;;;;;;;17.73;9.73;;;18.50;99.90;;;;;;5108397;28;20064;-62
2023/06/08 06:52:13;;;;;;;12.13;8.07;;;18.80;99.90;;;;;;5107993;28;20370;-63
2023/06/08 06:54:38;;;;;;;10.98;7.35;;;18.80;99.90;;;;;;5109893;28;20038;-61
2023/06/08 06:57:04;;;;;;;11.35;7.82;;;18.80;99.90;;;;;;5101632;28;20093;-62
2023/06/08 06:59:30;;;;;;;11.75;8.95;;;18.80;99.90;;;;;;5106542;28;20023;-62
2023/06/08 07:01:56;;;;;;;11.10;8.07;;;18.80;99.90;;;;;;5103209;28;20039;-63
2023/06/08 07:04:22;;;;;;;12.55;9.18;;;18.90;99.90;;;;;;5102576;28;20028;-64
2023/06/08 07:06:50;;;;;;;12.52;8.43;;;19.00;99.90;;;;;;5103612;28;20047;-64
2023/06/08 07:09:16;;;;;;;15.38;8.98;;;19.20;99.90;;;;;;5109360;28;20027;-64
2023/06/08 07:11:42;;;;;;;12.02;8.38;;;19.30;99.90;;;;;;5106911;28;20031;-63
2023/06/08 07:14:07;;;;;;;10.40;7.05;;;19.30;99.90;;;;;;5103635;28;20434;-63
2023/06/08 07:16:33;;;;;;;11.60;6.88;;;19.30;99.90;;;;;;5107999;28;20404;-62
2023/06/08 07:18:58;;;;;;;9.88;6.90;;;19.30;99.90;;;;;;5106147;28;20039;-63
2023/06/08 07:21:25;;;;;;;15.32;7.32;;;19.40;99.90;;;;;;5097795;28;20228;-63
2023/06/08 07:23:50;;;;;;;11.15;7.55;;;19.40;99.90;;;;;;5104446;28;20028;-63
2023/06/08 07:26:16;;;;;;;13.30;7.20;;;19.40;99.90;;;;;;5103822;28;20034;-61
2023/06/08 07:28:42;;;;;;;12.48;7.22;;;19.50;99.90;;;;;;5107883;28;20024;-63
2023/06/08 07:31:08;;;;;;;15.07;6.57;;;19.50;99.90;;;;;;5104874;28;20016;-63
2023/06/08 07:33:33;;;;;;;9.18;7.55;;;19.60;99.90;;;;;;5108359;28;20125;-64
2023/06/08 07:35:59;;;;;;;14.63;7.45;;;19.70;99.90;;;;;;5112884;27;20481;-62
2023/06/08 07:38:25;;;;;;;8.60;6.88;;;19.80;99.90;;;;;;5108117;28;20099;-63
2023/06/08 07:40:50;;;;;;;9.00;6.57;;;19.90;99.90;;;;;;5104774;28;20039;-63
2023/06/08 07:43:16;;;;;;;9.68;6.38;;;19.90;99.90;;;;;;5108139;28;20036;-63
2023/06/08 07:45:41;;;;;;;8.13;6.53;;;20.00;99.90;;;;;;5103196;28;20492;-63
2023/06/08 07:48:07;;;;;;;10.23;6.35;;;20.10;99.90;;;;;;5105124;28;20500;-64
2023/06/08 07:50:33;;;;;;;8.85;6.10;;;20.20;99.90;;;;;;5108217;28;20397;-64
2023/06/08 07:52:58;;;;;;;12.38;6.18;;;20.20;99.90;;;;;;5109527;28;20030;-61
2023/06/08 07:55:24;;;;;;;8.10;6.03;;;20.20;99.90;;;;;;5105375;28;20115;-63
2023/06/08 07:57:50;;;;;;;8.50;6.45;;;20.40;99.90;;;;;;5103792;28;20085;-63
2023/06/08 08:00:16;;;;;;;11.18;6.40;;;20.40;99.90;;;;;;5107675;28;20106;-65
2023/06/08 08:02:43;;;;;;;12.10;6.95;;;20.60;99.90;;;;;;5108273;28;20035;-63
2023/06/08 08:05:08;;;;;;;12.43;7.15;;;20.70;99.90;;;;;;5110645;28;20024;-63
2023/06/08 08:07:35;;;;;;;17.05;7.63;;;20.70;99.90;;;;;;5108084;28;20046;-63
2023/06/08 08:10:01;;;;;;;14.05;6.90;;;20.70;99.90;;;;;;5109150;28;20481;-64
2023/06/08 08:12:27;;;;;;;7.00;5.88;;;20.80;99.90;;;;;;5106378;28;20031;-63
2023/06/08 08:14:52;;;;;;;15.93;7.45;;;20.80;99.90;;;;;;5108348;28;20039;-64
2023/06/08 08:17:18;;;;;;;8.77;7.10;;;20.80;99.90;;;;;;5106157;28;20023;-64
2023/06/08 08:19:44;;;;;;;10.27;6.75;;;20.90;99.90;;;;;;5107798;28;20032;-64
2023/06/08 08:22:09;;;;;;;9.43;6.82;;;20.90;99.90;;;;;;5107719;28;20019;-63
2023/06/08 08:24:36;;;;;;;13.40;6.95;;;20.90;99.90;;;;;;5100604;28;20058;-63
2023/06/08 08:27:02;;;;;;;9.13;6.95;;;21.00;99.90;;;;;;5102971;28;20019;-63
2023/06/08 08:29:27;;;;;;;10.73;7.55;;;21.00;99.90;;;;;;5107405;28;20023;-63
2023/06/08 08:31:53;;;;;;;13.38;7.32;;;21.10;99.90;;;;;;5104302;28;20519;-63
2023/06/08 08:34:18;;;;;;;12.82;7.82;;;21.30;99.90;;;;;;5106936;28;20032;-64
2023/06/08 08:36:44;;;;;;;13.48;8.07;;;21.20;99.90;;;;;;5109962;28;20035;-63
2023/06/08 08:39:11;;;;;;;13.80;6.82;;;21.40;99.90;;;;;;5106104;28;20046;-62
2023/06/08 08:41:40;;;;;;;13.35;7.10;;;21.40;99.90;;;;;;5105894;28;20346;-63
2023/06/08 08:44:09;;;;;;;9.98;7.07;;;21.60;99.90;;;;;;5105342;28;20081;-62
2023/06/08 08:46:38;;;;;;;11.52;6.57;;;21.70;99.90;;;;;;5103699;28;20118;-62
2023/06/08 08:49:14;;;;;;;13.32;7.18;;;21.70;99.90;;;;;;5103305;28;20031;-64
2023/06/08 08:51:40;;;;;;;10.23;7.13;;;21.70;99.90;;;;;;5109208;28;20064;-63
2023/06/08 08:54:07;;;;;;;13.85;9.10;;;21.80;99.90;;;;;;5109721;28;20506;-63
2023/06/08 08:56:35;;;;;;;13.52;6.60;;;21.90;99.90;;;;;;5107470;28;20034;-63
2023/06/08 08:59:02;;;;;;;8.52;6.80;;;22.10;99.90;;;;;;5110620;28;20490;-63
2023/06/08 09:01:28;;;;;;;12.57;7.10;;;22.20;99.90;;;;;;5106692;28;20060;-64
2023/06/08 09:03:54;;;;;;;11.52;7.10;;;22.10;99.90;;;;;;5111158;28;20508;-63
2023/06/08 09:06:19;;;;;;;12.35;7.63;;;22.20;99.90;;;;;;5105651;28;20149;-64
2023/06/08 09:08:47;;;;;;;10.88;7.15;;;22.30;99.90;;;;;;5113083;27;20027;-64
2023/06/08 09:11:13;;;;;;;12.32;6.80;;;22.30;99.90;;;;;;5108793;27;20063;-64
2023/06/08 09:13:38;;;;;;;10.52;6.47;;;22.40;99.90;;;;;;5111102;28;20632;-63
2023/06/08 09:16:16;;;;;;;12.25;6.70;;;22.50;99.90;;;;;;5107804;28;20120;-64
2023/06/08 09:18:43;;;;;;;11.15;7.22;;;22.50;99.90;;;;;;5113491;28;20080;-64
2023/06/08 09:21:22;;;;;;;10.43;6.82;;;22.60;99.90;;;;;;5112663;28;20336;-63
2023/06/08 09:24:17;;;;;;;6.65;5.95;;;22.80;99.90;;;;;;5100968;28;20028;-64
2023/06/08 09:26:47;;;;;;;;;;;22.90;99.90;;;;;;5098594;28;20312;-63
2023/06/08 09:29:31;;;;;;;10.48;7.32;;;23.00;99.90;;;;;;5096290;28;19943;-63
2023/06/08 09:31:59;;;;;;;9.25;6.60;;;23.00;99.90;;;;;;5098109;28;20027;-63
2023/06/08 09:34:25;;;;;;;12.15;7.55;;;23.20;99.90;;;;;;5103215;28;20128;-64
2023/06/08 09:36:57;;;;;;;12.60;6.78;;;23.20;99.90;;;;;;5105280;28;20015;-64
2023/06/08 09:39:22;;;;;;;10.48;7.32;;;23.30;99.90;;;;;;5108593;28;20032;-63
2023/06/08 09:41:57;;;;;;;9.25;6.50;;;23.40;99.90;;;;;;5107284;28;20023;-64
2023/06/08 09:44:23;;;;;;;18.48;7.43;;;23.50;99.90;;;;;;5107131;28;20039;-64
2023/06/08 09:46:48;;;;;;;9.23;7.40;;;23.50;99.90;;;;;;5109783;28;20101;-65
2023/06/08 09:49:16;;;;;;;13.60;6.88;;;23.70;99.90;;;;;;5112672;27;20016;-64
2023/06/08 09:51:47;;;;;;;8.43;6.60;;;23.80;99.90;;;;;;5112264;28;20481;-64
2023/06/08 09:54:15;;;;;;;10.05;6.70;;;24.00;99.90;;;;;;5106675;28;20031;-64
2023/06/08 09:56:46;;;;;;;10.63;6.78;;;24.20;99.90;;;;;;5102795;28;20031;-63
2023/06/08 09:59:16;;;;;;;10.80;6.43;;;24.30;99.90;;;;;;5108501;28;20071;-62
2023/06/08 10:01:53;;;;;;;10.38;7.07;;;24.30;99.90;;;;;;5103995;28;20036;-62
2023/06/08 10:04:24;;;;;;;10.43;6.88;;;24.30;99.90;;;;;;5105230;28;20038;-64
2023/06/08 10:06:55;;;;;;;9.20;6.95;;;24.40;99.90;;;;;;5105250;28;20031;-63
2023/06/08 10:09:27;;;;;;;8.45;6.68;;;24.80;99.90;;;;;;5105042;28;20419;-63
2023/06/08 10:11:55;;;;;;;8.80;5.95;;;25.00;99.90;;;;;;5106198;28;20400;-64
2023/06/08 10:14:22;;;;;;;9.52;6.68;;;25.20;99.90;;;;;;5105047;28;20023;-63
2023/06/08 10:16:48;;;;;;;7.00;6.20;;;25.50;99.90;;;;;;5105663;28;20703;-64
2023/06/08 10:19:14;;;;;;;8.60;6.13;;;25.90;99.90;;;;;;5102642;28;20034;-65
2023/06/08 10:21:41;;;;;;;9.40;6.13;;;25.90;99.90;;;;;;5105508;28;20046;-65
2023/06/08 10:24:07;;;;;;;9.30;6.65;;;25.90;99.90;;;;;;5098868;28;20039;-65
2023/06/08 10:26:34;;;;;;;7.40;5.57;;;26.00;99.90;;;;;;5105663;28;20071;-65
2023/06/08 10:29:10;;;;;;;8.32;6.05;;;25.90;99.90;;;;;;5103793;27;20031;-64
2023/06/08 10:31:39;;;;;;;6.72;6.05;;;26.00;99.90;;;;;;5104513;28;20036;-64
2023/06/08 10:34:10;;;;;;;13.50;6.05;;;25.90;99.90;;;;;;5105688;28;20042;-64
2023/06/08 10:36:39;;;;;;;7.13;5.57;;;25.90;99.90;;;;;;5106638;28;20252;-63
2023/06/08 10:39:07;;;;;;;7.68;6.00;;;26.00;99.90;;;;;;5103005;28;20036;-64
2023/06/08 10:41:43;;;;;;;7.35;6.40;;;26.30;99.90;;;;;;5104759;28;20039;-63
2023/06/08 10:44:31;;;;;;;11.88;6.65;;;26.60;99.90;;;;;;5105042;28;20024;-63
2023/06/08 10:47:01;;;;;;;7.80;6.15;;;26.60;99.90;;;;;;5103483;28;20508;-64
2023/06/08 10:49:34;;;;;;;9.05;6.32;;;26.40;99.90;;;;;;5105304;28;20031;-63
2023/06/08 10:52:02;;;;;;;7.93;5.85;;;26.20;99.90;;;;;;5102930;28;20028;-64
2023/06/08 10:54:28;;;;;;;7.18;5.90;;;26.10;99.90;;;;;;5096625;28;20031;-63
2023/06/08 10:56:57;;;;;;;8.35;6.60;;;26.30;99.90;;;;;;5101582;28;20150;-62
2023/06/08 10:59:31;;;;;;;7.63;5.90;;;26.50;99.90;;;;;;5105722;28;20040;-62
2023/06/08 11:02:06;;;;;;;9.52;5.75;;;26.80;99.90;;;;;;5103091;28;20524;-63
2023/06/08 11:04:33;;;;;;;8.20;6.13;;;26.90;99.90;;;;;;5102408;28;20837;-64
2023/06/08 11:07:04;;;;;;;7.75;5.70;;;27.20;99.90;;;;;;5101078;28;20020;-63
2023/06/08 11:09:31;;;;;;;9.63;6.03;;;27.30;99.90;;;;;;5099601;28;20049;-63
2023/06/08 11:11:56;;;;;;;9.02;6.10;;;27.70;99.90;;;;;;5102917;28;20028;-63
2023/06/08 11:14:22;;;;;;;6.85;5.85;;;28.00;99.90;;;;;;5099721;28;20028;-60
2023/06/08 11:16:50;;;;;;;8.23;5.85;;;27.90;99.90;;;;;;5101370;28;20035;-63
2023/06/08 11:19:34;;;;;;;9.90;6.97;;;27.50;99.90;;;;;;5098485;28;20043;-63
2023/06/08 11:22:00;;;;;;;9.80;6.47;;;27.50;99.90;;;;;;5104436;28;20020;-63
2023/06/08 11:24:30;;;;;;;9.68;6.07;;;28.00;99.90;;;;;;5100561;28;20450;-62
2023/06/08 11:26:59;;;;;;;10.25;6.43;;;27.90;99.90;;;;;;5106065;28;20027;-63
2023/06/08 11:29:27;;;;;;;13.90;6.97;;;27.80;99.90;;;;;;5104593;28;20721;-63
2023/06/08 11:31:54;;;;;;;7.20;6.40;;;27.90;99.90;;;;;;5099697;28;20550;-64
2023/06/08 11:34:22;;;;;;;8.18;5.85;;;27.00;99.90;;;;;;5102613;28;20043;-62
2023/06/08 11:36:49;;;;;;;14.23;6.50;;;26.80;99.90;;;;;;5103474;28;20034;-63
2023/06/08 11:39:14;;;;;;;12.43;6.68;;;26.70;99.90;;;;;;5102587;28;20030;-62
2023/06/08 11:41:46;;;;;;;8.93;6.53;;;26.60;99.90;;;;;;5058838;27;20435;-63
2023/06/08 11:44:15;;;;;;;8.18;6.43;;;27.30;99.90;;;;;;5062038;28;20099;-62
2023/06/08 11:46:44;;;;;;;9.02;5.95;;;27.70;99.90;;;;;;5051143;28;20021;-63
2023/06/08 11:49:10;;;;;;;12.90;6.43;;;27.60;99.90;;;;;;5047853;28;20205;-61
2023/06/08 11:51:47;;;;;;;6.70;5.72;;;27.20;99.90;;;;;;5053216;28;20525;-64
2023/06/08 11:54:13;;;;;;;9.68;7.40;;;26.60;99.90;;;;;;5050982;28;20032;-63
2023/06/08 11:56:39;;;;;;;8.90;6.72;;;26.10;99.90;;;;;;5051234;28;20033;-63
2023/06/08 11:59:05;;;;;;;9.85;6.20;;;26.80;99.90;;;;;;5055316;28;20021;-63
2023/06/08 12:01:31;;;;;;;6.15;5.47;;;27.50;99.90;;;;;;5050857;28;20033;-63
2023/06/08 12:03:56;;;;;;;6.55;5.82;;;27.70;99.90;;;;;;5054671;28;20025;-63
2023/06/08 12:06:26;;;;;;;7.88;5.85;;;27.40;99.90;;;;;;5051284;28;20016;-63
2023/06/08 12:08:55;;;;;;;7.35;6.55;;;27.40;99.90;;;;;;5050996;28;20028;-63
2023/06/08 12:11:21;;;;;;;12.68;6.03;;;27.60;99.90;;;;;;5055301;28;20566;-63
2023/06/08 12:13:47;;;;;;;11.10;6.40;;;27.90;99.90;;;;;;5059079;28;20032;-63
2023/06/08 12:16:13;;;;;;;9.38;6.65;;;27.70;99.90;;;;;;5051373;28;20042;-63
2023/06/08 12:18:44;;;;;;;8.30;6.80;;;27.30;99.90;;;;;;5054066;28;20048;-62
2023/06/08 12:21:14;;;;;;;6.45;5.85;;;27.80;99.90;;;;;;5051011;28;20031;-62
2023/06/08 12:23:39;;;;;;;8.18;5.97;;;27.70;99.90;;;;;;5053035;28;20445;-62
2023/06/08 12:26:05;;;;;;;9.23;6.68;;;28.00;99.90;;;;;;5052483;28;20025;-63
2023/06/08 12:28:32;;;;;;;15.43;6.40;;;27.80;99.90;;;;;;5053359;28;20563;-63
2023/06/08 12:31:00;;;;;;;6.10;5.50;;;27.70;99.90;;;;;;5054200;28;20028;-63
2023/06/08 12:33:26;;;;;;;9.10;6.47;;;28.20;99.90;;;;;;5052917;28;20032;-62
2023/06/08 12:35:53;;;;;;;8.05;5.60;;;28.60;99.90;;;;;;5054987;28;20025;-62